Marida Mulberry — V7PL7 — position and weather

sailwx.info

Track history (hours):
 
Tides and Currents Weather Stations Pressure Air Temp Water Temp Dewpoint Dewpoint Depression Visibility Wind Speed Wind Dir Waves Ship Positions

Marida Mulberry

Last reported at 2017-Nov-18 13:12 UTC. Time now 2017-Nov-22 13:07 UTC.
Position N 37°45' W 000°20'.

Length 128 m; draft 7.5 m.

Type: Ship. MMSI: 538007090.

Date/timePositionNaut miles runAvg speedWind from/ knotsBaromVisibWave heightAir tempDewpointWater temp
2017-Nov-18 13:12N 37°45' W 000°20'210.3
2017-Nov-18 13:00N 37°43' W 000°21'510.2
2017-Nov-18 12:30N 37°39' W 000°25'510.2
2017-Nov-18 12:00N 37°35' W 000°28'510.0
2017-Nov-18 11:30N 37°31' W 000°33'7 9.8
2017-Nov-18 10:47N 37°27' W 000°40'3 9.8
2017-Nov-18 10:30N 37°25' W 000°42'5 9.9
2017-Nov-18 10:00N 37°21' W 000°47'5 9.8
2017-Nov-18 09:30N 37°18' W 000°51'223 9.9
2017-Nov-17 11:03N 36°00' W 005°12'112.6
2017-Nov-17 10:59N 36°00' W 005°13'612.2
2017-Nov-17 10:30N 35°59' W 005°20'612.1
2017-Nov-17 10:00N 35°57' W 005°27'21910.0
2017-Nov-16 11:58N 37°09' W 009°45'511.2
2017-Nov-16 11:30N 37°14' W 009°46'711.2
2017-Nov-16 10:51N 37°22' W 009°48'411.2
2017-Nov-16 10:30N 37°25' W 009°49'611.5
2017-Nov-16 10:00N 37°31' W 009°51'611.4
2017-Nov-16 09:30N 37°37' W 009°52'611.2
2017-Nov-16 09:00N 37°42' W 009°54'611.6
2017-Nov-16 08:30N 37°48' W 009°56'611.6
2017-Nov-16 08:00N 37°53' W 009°58'611.5
2017-Nov-16 07:30N 37°59' W 009°59'611.5
2017-Nov-16 07:00N 38°05' W 010°01'611.5
2017-Nov-16 06:28N 38°11' W 010°03'511.5
2017-Nov-16 06:00N 38°16' W 010°04'611.7
2017-Nov-16 05:30N 38°22' W 010°06'611.4
2017-Nov-16 05:00N 38°27' W 010°07'511.0
2017-Nov-16 04:30N 38°32' W 010°09'611.0
2017-Nov-16 04:00N 38°38' W 010°11'511.0
2017-Nov-16 03:30N 38°43' W 010°12'510.9
2017-Nov-16 03:00N 38°49' W 010°12'510.9
2017-Nov-16 02:30N 38°54' W 010°12'611.3
2017-Nov-16 01:59N 38°60' W 010°12'511.2
2017-Nov-16 01:31N 39°05' W 010°12'611.0
2017-Nov-16 01:00N 39°11' W 010°12'611.3
2017-Nov-16 00:30N 39°16' W 010°12'54511.1
2017-Nov-13 23:26N 47°58' W 006°35'710.4
2017-Nov-13 22:46N 48°04' W 006°30'310.4
2017-Nov-13 22:30N 48°07' W 006°28'610.6
2017-Nov-13 21:59N 48°11' W 006°24'26011.0
2017-Nov-12 22:19N 50°25' W 000°42'412.9
2017-Nov-12 22:00N 50°26' W 000°36'612.6
2017-Nov-12 21:31N 50°28' W 000°26'612.4
2017-Nov-12 21:00N 50°30' W 000°17'612.0
2017-Nov-12 20:30N 50°31' W 000°08'611.9
2017-Nov-12 20:00N 50°33' E 000°01'611.6
2017-Nov-12 19:30N 50°34' E 000°10'611.2
2017-Nov-12 19:00N 50°35' E 000°19'510.9
2017-Nov-12 18:30N 50°37' E 000°27'510.7
2017-Nov-12 18:00N 50°38' E 000°35'510.9
2017-Nov-12 17:30N 50°41' E 000°42'510.8
2017-Nov-12 17:00N 50°44' E 000°49'610.9
2017-Nov-12 16:30N 50°47' E 000°57'511.0
2017-Nov-12 16:00N 50°51' E 001°04'611.6
2017-Nov-12 15:30N 50°55' E 001°10'612.2
2017-Nov-12 15:00N 50°59' E 001°17'612.6
2017-Nov-12 14:30N 51°03' E 001°25'612.6
2017-Nov-12 14:00N 51°06' E 001°33'611.9
2017-Nov-12 13:30N 51°10' E 001°41'611.0
2017-Nov-12 13:00N 51°14' E 001°46'611.2
2017-Nov-12 12:30N 51°19' E 001°51'510.7
2017-Nov-12 12:00N 51°24' E 001°55'4 8.2
2017-Nov-12 11:30N 51°25' E 002°01'4 8.4
2017-Nov-12 11:00N 51°24' E 002°07'4 8.7
2017-Nov-12 10:30N 51°21' E 002°13'4 8.0
2017-Nov-12 10:00N 51°21' E 002°20'4 8.9
2017-Nov-12 09:30N 51°22' E 002°26'5 8.8
2017-Nov-12 09:00N 51°23' E 002°33'4 8.8
2017-Nov-12 08:30N 51°23' E 002°40'4 9.0
2017-Nov-12 08:00N 51°22' E 002°47'510.2
2017-Nov-12 07:30N 51°23' E 002°56'510.3
2017-Nov-12 07:01N 51°24' E 003°03'5 9.7
2017-Nov-12 06:30N 51°24' E 003°11'5 9.2
2017-Nov-12 06:00N 51°25' E 003°19'5 9.8
2017-Nov-12 05:30N 51°25' E 003°26'5 9.9
2017-Nov-12 05:00N 51°26' E 003°34'4 8.6
2017-Nov-12 04:30N 51°26' E 003°41'510.5
2017-Nov-12 04:00N 51°22' E 003°46'3 6.1
2017-Nov-12 03:30N 51°20' E 003°49'1 2.2
2017-Nov-12 03:00N 51°19' E 003°50'3 6.5
2017-Nov-12 02:31N 51°15' E 003°50'4 7.1
2017-Nov-12 02:00N 51°12' E 003°48'3 6.4
2017-Nov-12 01:30N 51°09' E 003°47'3 6.8
2017-Nov-12 01:00N 51°06' E 003°44'1 2.1
2017-Nov-12 00:28N 51°05' E 003°44'0 0.0
2017-Nov-11 23:58N 51°05' E 003°44'0 0.0
2017-Nov-11 23:28N 51°05' E 003°44'0 0.0
2017-Nov-11 22:55N 51°05' E 003°44'0 0.0
2017-Nov-11 22:28N 51°05' E 003°44'0 0.0
2017-Nov-11 21:58N 51°05' E 003°44'0 0.0
2017-Nov-11 21:28N 51°05' E 003°44'0 0.0
2017-Nov-11 20:55N 51°05' E 003°44'0 0.0
2017-Nov-11 20:28N 51°05' E 003°44'0 0.0
2017-Nov-11 19:58N 51°05' E 003°44'0 0.0
2017-Nov-11 19:28N 51°05' E 003°44'0 0.0
2017-Nov-11 18:58N 51°05' E 003°44'0 0.0
2017-Nov-11 18:28N 51°05' E 003°44'0 0.0
2017-Nov-11 17:58N 51°05' E 003°44'0 0.0
2017-Nov-11 17:28N 51°05' E 003°44'0 0.0
2017-Nov-11 16:58N 51°05' E 003°44'0 0.0
2017-Nov-11 16:25N 51°05' E 003°44'0 0.0
2017-Nov-11 15:58N 51°05' E 003°44'0 0.0
2017-Nov-11 15:22N 51°05' E 003°44'0 0.0
2017-Nov-11 14:58N 51°05' E 003°44'0 0.0
2017-Nov-11 14:28N 51°05' E 003°44'0 0.0
2017-Nov-11 14:00N 51°05' E 003°44'0 0.0
2017-Nov-11 13:30N 51°05' E 003°44'0 0.0
2017-Nov-11 13:00N 51°05' E 003°44'0 0.0
2017-Nov-11 12:30N 51°05' E 003°44'0 0.0
2017-Nov-11 12:00N 51°05' E 003°44'0 0.0
2017-Nov-11 11:30N 51°05' E 003°44'0 0.0
2017-Nov-11 11:00N 51°05' E 003°44'0 0.0
2017-Nov-11 10:30N 51°05' E 003°44'0 0.0
2017-Nov-11 10:00N 51°05' E 003°44'0 0.0
2017-Nov-11 09:30N 51°05' E 003°44'0 0.0
2017-Nov-11 09:00N 51°05' E 003°44'0 0.0
2017-Nov-11 08:30N 51°05' E 003°44'0 0.0
2017-Nov-11 08:00N 51°05' E 003°44'0 0.0
2017-Nov-11 07:30N 51°05' E 003°44'0 0.0
2017-Nov-11 07:00N 51°05' E 003°44'0 0.0
2017-Nov-11 06:30N 51°05' E 003°44'0 0.0
2017-Nov-11 06:00N 51°05' E 003°44'0 0.0
2017-Nov-11 05:30N 51°05' E 003°44'0 0.0
2017-Nov-11 05:00N 51°05' E 003°44'0 0.0
2017-Nov-11 04:30N 51°05' E 003°44'0 0.0
2017-Nov-11 04:00N 51°05' E 003°44'0 0.0
2017-Nov-11 03:30N 51°05' E 003°44'0 0.0
2017-Nov-11 03:00N 51°05' E 003°44'0 0.0
2017-Nov-11 02:30N 51°05' E 003°44'0 0.0
2017-Nov-11 02:01N 51°05' E 003°44'0 0.0
2017-Nov-11 01:29N 51°05' E 003°44'0 0.0
2017-Nov-11 00:59N 51°05' E 003°44'0 0.0
2017-Nov-11 00:29N 51°05' E 003°44'0 0.0
2017-Nov-10 23:59N 51°05' E 003°44'0 0.0
2017-Nov-10 23:29N 51°05' E 003°44'0 0.0
2017-Nov-10 22:59N 51°05' E 003°44'0 0.0
2017-Nov-10 22:29N 51°05' E 003°44'0 0.0
2017-Nov-10 21:59N 51°05' E 003°44'0 0.0
2017-Nov-10 21:29N 51°05' E 003°44'0 0.0
2017-Nov-10 20:59N 51°05' E 003°44'0 0.0
2017-Nov-10 20:29N 51°05' E 003°44'0 0.0
2017-Nov-10 19:59N 51°05' E 003°44'0 0.0
2017-Nov-10 19:26N 51°05' E 003°44'0 0.0
2017-Nov-10 18:59N 51°05' E 003°44'0 0.0
2017-Nov-10 18:29N 51°05' E 003°44'0 0.0
2017-Nov-10 17:59N 51°05' E 003°44'0 0.0
2017-Nov-10 17:29N 51°05' E 003°44'0 0.0
2017-Nov-10 16:59N 51°05' E 003°44'0 0.0
2017-Nov-10 16:29N 51°05' E 003°44'0 0.0
2017-Nov-10 15:59N 51°05' E 003°44'0 0.0
2017-Nov-10 15:29N 51°05' E 003°44'0 0.0
2017-Nov-10 14:59N 51°05' E 003°44'0 0.0
2017-Nov-10 14:29N 51°05' E 003°44'0 0.0
2017-Nov-10 14:00N 51°05' E 003°44'0 0.0
2017-Nov-10 13:30N 51°05' E 003°44'0 0.0
2017-Nov-10 13:00N 51°05' E 003°44'0 0.0
2017-Nov-10 12:30N 51°05' E 003°44'0 0.0
2017-Nov-10 12:00N 51°05' E 003°44'0 0.0
2017-Nov-10 11:30N 51°05' E 003°44'0 0.0
2017-Nov-10 11:00N 51°05' E 003°44'0 0.0
2017-Nov-10 10:30N 51°05' E 003°44'0 0.0
2017-Nov-10 10:00N 51°05' E 003°44'0 0.0
2017-Nov-10 09:30N 51°05' E 003°44'0 0.0
2017-Nov-10 09:00N 51°05' E 003°44'0 0.0
2017-Nov-10 08:30N 51°05' E 003°44'0 0.0
2017-Nov-10 08:00N 51°05' E 003°44'0 0.0
2017-Nov-10 07:30N 51°05' E 003°44'0 0.0
2017-Nov-10 07:00N 51°05' E 003°44'0 0.0
2017-Nov-10 06:30N 51°05' E 003°44'0 0.0
2017-Nov-10 06:00N 51°05' E 003°44'0 0.0
2017-Nov-10 05:30N 51°05' E 003°44'0 0.0
2017-Nov-10 05:00N 51°05' E 003°44'0 0.0
2017-Nov-10 04:30N 51°05' E 003°44'0 0.0
2017-Nov-10 04:00N 51°05' E 003°44'0 0.0
2017-Nov-10 03:30N 51°05' E 003°44'0 0.0
2017-Nov-10 03:00N 51°05' E 003°44'0 0.0
2017-Nov-10 02:30N 51°05' E 003°44'0 0.0
2017-Nov-10 02:00N 51°05' E 003°44'0 0.0
2017-Nov-10 01:30N 51°05' E 003°44'0 0.0
2017-Nov-10 01:00N 51°05' E 003°44'0 0.0
2017-Nov-10 00:30N 51°05' E 003°44'0 0.0
2017-Nov-10 00:00N 51°05' E 003°44'0 0.0
2017-Nov-09 23:30N 51°05' E 003°44'0 0.0
2017-Nov-09 23:00N 51°05' E 003°44'0 0.0
2017-Nov-09 22:30N 51°05' E 003°44'0 0.0
2017-Nov-09 22:00N 51°05' E 003°44'0 0.0
2017-Nov-09 21:30N 51°05' E 003°44'0 0.0
2017-Nov-09 21:00N 51°05' E 003°44'0 0.0
2017-Nov-09 20:30N 51°05' E 003°44'0 0.0
2017-Nov-09 20:00N 51°05' E 003°44'0 0.5
2017-Nov-09 19:29N 51°05' E 003°45'0 0.0
2017-Nov-09 18:53N 51°05' E 003°45'0 0.0
2017-Nov-09 18:29N 51°05' E 003°45'0 0.0
2017-Nov-09 17:56N 51°05' E 003°45'0 0.0
2017-Nov-09 17:26N 51°05' E 003°45'0 0.0
2017-Nov-09 16:56N 51°05' E 003°45'0 0.0
2017-Nov-09 16:26N 51°05' E 003°45'0 0.0
2017-Nov-09 15:56N 51°05' E 003°45'0 0.0
2017-Nov-09 15:26N 51°05' E 003°45'0 0.0
2017-Nov-09 15:00N 51°05' E 003°45'0 0.0
2017-Nov-09 14:30N 51°05' E 003°45'0 0.0
2017-Nov-09 14:00N 51°05' E 003°45'0 0.0
2017-Nov-09 13:30N 51°05' E 003°45'1 1.9
2017-Nov-09 13:01N 51°06' E 003°44'3 6.3
2017-Nov-09 12:30N 51°08' E 003°47'3 6.6
2017-Nov-09 12:01N 51°12' E 003°48'3 6.3
2017-Nov-09 11:30N 51°15' E 003°49'3 6.5
2017-Nov-09 11:00N 51°18' E 003°50'2 4.1
2017-Nov-09 10:30N 51°20' E 003°49'0 0.1
2017-Nov-09 10:00N 51°20' E 003°49'1 1.0
2017-Nov-09 09:30N 51°20' E 003°49'2 4.8
2017-Nov-09 09:00N 51°22' E 003°46'4 7.4
2017-Nov-09 08:30N 51°24' E 003°41'4 7.5
2017-Nov-09 08:00N 51°25' E 003°35'4 8.1
2017-Nov-09 07:30N 51°28' E 003°31'5 9.6
2017-Nov-09 07:00N 51°32' E 003°26'5 9.7
2017-Nov-09 06:30N 51°36' E 003°22'4 7.5
2017-Nov-09 06:00N 51°39' E 003°19'6 7.5
2017-Nov-09 05:13N 51°45' E 003°17'3 5.9
2017-Nov-09 04:48N 51°46' E 003°20'0 0.3
2017-Nov-09 03:39N 51°46' E 003°21'0 0.1
2017-Nov-09 03:27N 51°46' E 003°21'0 0.1
2017-Nov-09 02:57N 51°46' E 003°21'0 0.0
2017-Nov-08 22:28N 51°46' E 003°21'0 0.0
2017-Nov-08 21:58N 51°46' E 003°21'0 0.0
2017-Nov-08 21:31N 51°46' E 003°21'0 0.0
2017-Nov-08 20:58N 51°46' E 003°21'0 0.0
2017-Nov-08 20:28N 51°46' E 003°21'0 0.0
2017-Nov-08 20:00N 51°46' E 003°21'0 0.1
2017-Nov-08 19:25N 51°46' E 003°21'0 0.1
2017-Nov-08 18:55N 51°46' E 003°21'0 0.0
2017-Nov-08 18:24N 51°46' E 003°21'0 0.0
2017-Nov-08 15:31N 51°46' E 003°21'0 0.1
2017-Nov-08 15:00N 51°46' E 003°21'1 0.9
2017-Nov-08 13:20N 51°47' E 003°19'  
Track history (hours):
 
Tides and Currents Weather Stations Pressure Air Temp Water Temp Dewpoint Dewpoint Depression Visibility Wind Speed Wind Dir Waves Ship Positions

Marida Mulberry

Last reported at 2017-Nov-18 13:12 UTC. Time now 2017-Nov-22 13:07 UTC.
Position N 37°45' W 000°20'.

Length 128 m; draft 7.5 m.

Type: Ship. MMSI: 538007090.

Date/timePositionNaut miles runAvg speedWind from/ knotsBaromVisibWave heightAir tempDewpointWater temp
2017-Nov-18 13:12N 37°45' W 000°20'210.3
2017-Nov-18 13:00N 37°43' W 000°21'510.2
2017-Nov-18 12:30N 37°39' W 000°25'510.2
2017-Nov-18 12:00N 37°35' W 000°28'510.0
2017-Nov-18 11:30N 37°31' W 000°33'7 9.8
2017-Nov-18 10:47N 37°27' W 000°40'3 9.8
2017-Nov-18 10:30N 37°25' W 000°42'5 9.9
2017-Nov-18 10:00N 37°21' W 000°47'5 9.8
2017-Nov-18 09:30N 37°18' W 000°51'223 9.9
2017-Nov-17 11:03N 36°00' W 005°12'112.6
2017-Nov-17 10:59N 36°00' W 005°13'612.2
2017-Nov-17 10:30N 35°59' W 005°20'612.1
2017-Nov-17 10:00N 35°57' W 005°27'21910.0
2017-Nov-16 11:58N 37°09' W 009°45'511.2
2017-Nov-16 11:30N 37°14' W 009°46'711.2
2017-Nov-16 10:51N 37°22' W 009°48'411.2
2017-Nov-16 10:30N 37°25' W 009°49'611.5
2017-Nov-16 10:00N 37°31' W 009°51'611.4
2017-Nov-16 09:30N 37°37' W 009°52'611.2
2017-Nov-16 09:00N 37°42' W 009°54'611.6
2017-Nov-16 08:30N 37°48' W 009°56'611.6
2017-Nov-16 08:00N 37°53' W 009°58'611.5
2017-Nov-16 07:30N 37°59' W 009°59'611.5
2017-Nov-16 07:00N 38°05' W 010°01'611.5
2017-Nov-16 06:28N 38°11' W 010°03'511.5
2017-Nov-16 06:00N 38°16' W 010°04'611.7
2017-Nov-16 05:30N 38°22' W 010°06'611.4
2017-Nov-16 05:00N 38°27' W 010°07'511.0
2017-Nov-16 04:30N 38°32' W 010°09'611.0
2017-Nov-16 04:00N 38°38' W 010°11'511.0
2017-Nov-16 03:30N 38°43' W 010°12'510.9
2017-Nov-16 03:00N 38°49' W 010°12'510.9
2017-Nov-16 02:30N 38°54' W 010°12'611.3
2017-Nov-16 01:59N 38°60' W 010°12'511.2
2017-Nov-16 01:31N 39°05' W 010°12'611.0
2017-Nov-16 01:00N 39°11' W 010°12'611.3
2017-Nov-16 00:30N 39°16' W 010°12'54511.1
2017-Nov-13 23:26N 47°58' W 006°35'710.4
2017-Nov-13 22:46N 48°04' W 006°30'310.4
2017-Nov-13 22:30N 48°07' W 006°28'610.6
2017-Nov-13 21:59N 48°11' W 006°24'26011.0
2017-Nov-12 22:19N 50°25' W 000°42'412.9
2017-Nov-12 22:00N 50°26' W 000°36'612.6
2017-Nov-12 21:31N 50°28' W 000°26'612.4
2017-Nov-12 21:00N 50°30' W 000°17'612.0
2017-Nov-12 20:30N 50°31' W 000°08'611.9
2017-Nov-12 20:00N 50°33' E 000°01'611.6
2017-Nov-12 19:30N 50°34' E 000°10'611.2
2017-Nov-12 19:00N 50°35' E 000°19'510.9
2017-Nov-12 18:30N 50°37' E 000°27'510.7
2017-Nov-12 18:00N 50°38' E 000°35'510.9
2017-Nov-12 17:30N 50°41' E 000°42'510.8
2017-Nov-12 17:00N 50°44' E 000°49'610.9
2017-Nov-12 16:30N 50°47' E 000°57'511.0
2017-Nov-12 16:00N 50°51' E 001°04'611.6
2017-Nov-12 15:30N 50°55' E 001°10'612.2
2017-Nov-12 15:00N 50°59' E 001°17'612.6
2017-Nov-12 14:30N 51°03' E 001°25'612.6
2017-Nov-12 14:00N 51°06' E 001°33'611.9
2017-Nov-12 13:30N 51°10' E 001°41'611.0
2017-Nov-12 13:00N 51°14' E 001°46'611.2
2017-Nov-12 12:30N 51°19' E 001°51'510.7
2017-Nov-12 12:00N 51°24' E 001°55'4 8.2
2017-Nov-12 11:30N 51°25' E 002°01'4 8.4
2017-Nov-12 11:00N 51°24' E 002°07'4 8.7
2017-Nov-12 10:30N 51°21' E 002°13'4 8.0
2017-Nov-12 10:00N 51°21' E 002°20'4 8.9
2017-Nov-12 09:30N 51°22' E 002°26'5 8.8
2017-Nov-12 09:00N 51°23' E 002°33'4 8.8
2017-Nov-12 08:30N 51°23' E 002°40'4 9.0
2017-Nov-12 08:00N 51°22' E 002°47'510.2
2017-Nov-12 07:30N 51°23' E 002°56'510.3
2017-Nov-12 07:01N 51°24' E 003°03'5 9.7
2017-Nov-12 06:30N 51°24' E 003°11'5 9.2
2017-Nov-12 06:00N 51°25' E 003°19'5 9.8
2017-Nov-12 05:30N 51°25' E 003°26'5 9.9
2017-Nov-12 05:00N 51°26' E 003°34'4 8.6
2017-Nov-12 04:30N 51°26' E 003°41'510.5
2017-Nov-12 04:00N 51°22' E 003°46'3 6.1
2017-Nov-12 03:30N 51°20' E 003°49'1 2.2
2017-Nov-12 03:00N 51°19' E 003°50'3 6.5
2017-Nov-12 02:31N 51°15' E 003°50'4 7.1
2017-Nov-12 02:00N 51°12' E 003°48'3 6.4
2017-Nov-12 01:30N 51°09' E 003°47'3 6.8
2017-Nov-12 01:00N 51°06' E 003°44'1 2.1
2017-Nov-12 00:28N 51°05' E 003°44'0 0.0
2017-Nov-11 23:58N 51°05' E 003°44'0 0.0
2017-Nov-11 23:28N 51°05' E 003°44'0 0.0
2017-Nov-11 22:55N 51°05' E 003°44'0 0.0
2017-Nov-11 22:28N 51°05' E 003°44'0 0.0
2017-Nov-11 21:58N 51°05' E 003°44'0 0.0
2017-Nov-11 21:28N 51°05' E 003°44'0 0.0
2017-Nov-11 20:55N 51°05' E 003°44'0 0.0
2017-Nov-11 20:28N 51°05' E 003°44'0 0.0
2017-Nov-11 19:58N 51°05' E 003°44'0 0.0
2017-Nov-11 19:28N 51°05' E 003°44'0 0.0
2017-Nov-11 18:58N 51°05' E 003°44'0 0.0
2017-Nov-11 18:28N 51°05' E 003°44'0 0.0
2017-Nov-11 17:58N 51°05' E 003°44'0 0.0
2017-Nov-11 17:28N 51°05' E 003°44'0 0.0
2017-Nov-11 16:58N 51°05' E 003°44'0 0.0
2017-Nov-11 16:25N 51°05' E 003°44'0 0.0
2017-Nov-11 15:58N 51°05' E 003°44'0 0.0
2017-Nov-11 15:22N 51°05' E 003°44'0 0.0
2017-Nov-11 14:58N 51°05' E 003°44'0 0.0
2017-Nov-11 14:28N 51°05' E 003°44'0 0.0
2017-Nov-11 14:00N 51°05' E 003°44'0 0.0
2017-Nov-11 13:30N 51°05' E 003°44'0 0.0
2017-Nov-11 13:00N 51°05' E 003°44'0 0.0
2017-Nov-11 12:30N 51°05' E 003°44'0 0.0
2017-Nov-11 12:00N 51°05' E 003°44'0 0.0
2017-Nov-11 11:30N 51°05' E 003°44'0 0.0
2017-Nov-11 11:00N 51°05' E 003°44'0 0.0
2017-Nov-11 10:30N 51°05' E 003°44'0 0.0
2017-Nov-11 10:00N 51°05' E 003°44'0 0.0
2017-Nov-11 09:30N 51°05' E 003°44'0 0.0
2017-Nov-11 09:00N 51°05' E 003°44'0 0.0
2017-Nov-11 08:30N 51°05' E 003°44'0 0.0
2017-Nov-11 08:00N 51°05' E 003°44'0 0.0
2017-Nov-11 07:30N 51°05' E 003°44'0 0.0
2017-Nov-11 07:00N 51°05' E 003°44'0 0.0
2017-Nov-11 06:30N 51°05' E 003°44'0 0.0
2017-Nov-11 06:00N 51°05' E 003°44'0 0.0
2017-Nov-11 05:30N 51°05' E 003°44'0 0.0
2017-Nov-11 05:00N 51°05' E 003°44'0 0.0
2017-Nov-11 04:30N 51°05' E 003°44'0 0.0
2017-Nov-11 04:00N 51°05' E 003°44'0 0.0
2017-Nov-11 03:30N 51°05' E 003°44'0 0.0
2017-Nov-11 03:00N 51°05' E 003°44'0 0.0
2017-Nov-11 02:30N 51°05' E 003°44'0 0.0
2017-Nov-11 02:01N 51°05' E 003°44'0 0.0
2017-Nov-11 01:29N 51°05' E 003°44'0 0.0
2017-Nov-11 00:59N 51°05' E 003°44'0 0.0
2017-Nov-11 00:29N 51°05' E 003°44'0 0.0
2017-Nov-10 23:59N 51°05' E 003°44'0 0.0
2017-Nov-10 23:29N 51°05' E 003°44'0 0.0
2017-Nov-10 22:59N 51°05' E 003°44'0 0.0
2017-Nov-10 22:29N 51°05' E 003°44'0 0.0
2017-Nov-10 21:59N 51°05' E 003°44'0 0.0
2017-Nov-10 21:29N 51°05' E 003°44'0 0.0
2017-Nov-10 20:59N 51°05' E 003°44'0 0.0
2017-Nov-10 20:29N 51°05' E 003°44'0 0.0
2017-Nov-10 19:59N 51°05' E 003°44'0 0.0
2017-Nov-10 19:26N 51°05' E 003°44'0 0.0
2017-Nov-10 18:59N 51°05' E 003°44'0 0.0
2017-Nov-10 18:29N 51°05' E 003°44'0 0.0
2017-Nov-10 17:59N 51°05' E 003°44'0 0.0
2017-Nov-10 17:29N 51°05' E 003°44'0 0.0
2017-Nov-10 16:59N 51°05' E 003°44'0 0.0
2017-Nov-10 16:29N 51°05' E 003°44'0 0.0
2017-Nov-10 15:59N 51°05' E 003°44'0 0.0
2017-Nov-10 15:29N 51°05' E 003°44'0 0.0
2017-Nov-10 14:59N 51°05' E 003°44'0 0.0
2017-Nov-10 14:29N 51°05' E 003°44'0 0.0
2017-Nov-10 14:00N 51°05' E 003°44'0 0.0
2017-Nov-10 13:30N 51°05' E 003°44'0 0.0
2017-Nov-10 13:00N 51°05' E 003°44'0 0.0
2017-Nov-10 12:30N 51°05' E 003°44'0 0.0
2017-Nov-10 12:00N 51°05' E 003°44'0 0.0
2017-Nov-10 11:30N 51°05' E 003°44'0 0.0
2017-Nov-10 11:00N 51°05' E 003°44'0 0.0
2017-Nov-10 10:30N 51°05' E 003°44'0 0.0
2017-Nov-10 10:00N 51°05' E 003°44'0 0.0
2017-Nov-10 09:30N 51°05' E 003°44'0 0.0
2017-Nov-10 09:00N 51°05' E 003°44'0 0.0
2017-Nov-10 08:30N 51°05' E 003°44'0 0.0
2017-Nov-10 08:00N 51°05' E 003°44'0 0.0
2017-Nov-10 07:30N 51°05' E 003°44'0 0.0
2017-Nov-10 07:00N 51°05' E 003°44'0 0.0
2017-Nov-10 06:30N 51°05' E 003°44'0 0.0
2017-Nov-10 06:00N 51°05' E 003°44'0 0.0
2017-Nov-10 05:30N 51°05' E 003°44'0 0.0
2017-Nov-10 05:00N 51°05' E 003°44'0 0.0
2017-Nov-10 04:30N 51°05' E 003°44'0 0.0
2017-Nov-10 04:00N 51°05' E 003°44'0 0.0
2017-Nov-10 03:30N 51°05' E 003°44'0 0.0
2017-Nov-10 03:00N 51°05' E 003°44'0 0.0
2017-Nov-10 02:30N 51°05' E 003°44'0 0.0
2017-Nov-10 02:00N 51°05' E 003°44'0 0.0
2017-Nov-10 01:30N 51°05' E 003°44'0 0.0
2017-Nov-10 01:00N 51°05' E 003°44'0 0.0
2017-Nov-10 00:30N 51°05' E 003°44'0 0.0
2017-Nov-10 00:00N 51°05' E 003°44'0 0.0
2017-Nov-09 23:30N 51°05' E 003°44'0 0.0
2017-Nov-09 23:00N 51°05' E 003°44'0 0.0
2017-Nov-09 22:30N 51°05' E 003°44'0 0.0
2017-Nov-09 22:00N 51°05' E 003°44'0 0.0
2017-Nov-09 21:30N 51°05' E 003°44'0 0.0
2017-Nov-09 21:00N 51°05' E 003°44'0 0.0
2017-Nov-09 20:30N 51°05' E 003°44'0 0.0
2017-Nov-09 20:00N 51°05' E 003°44'0 0.5
2017-Nov-09 19:29N 51°05' E 003°45'0 0.0
2017-Nov-09 18:53N 51°05' E 003°45'0 0.0
2017-Nov-09 18:29N 51°05' E 003°45'0 0.0
2017-Nov-09 17:56N 51°05' E 003°45'0 0.0
2017-Nov-09 17:26N 51°05' E 003°45'0 0.0
2017-Nov-09 16:56N 51°05' E 003°45'0 0.0
2017-Nov-09 16:26N 51°05' E 003°45'0 0.0
2017-Nov-09 15:56N 51°05' E 003°45'0 0.0
2017-Nov-09 15:26N 51°05' E 003°45'0 0.0
2017-Nov-09 15:00N 51°05' E 003°45'0 0.0
2017-Nov-09 14:30N 51°05' E 003°45'0 0.0
2017-Nov-09 14:00N 51°05' E 003°45'0 0.0
2017-Nov-09 13:30N 51°05' E 003°45'1 1.9
2017-Nov-09 13:01N 51°06' E 003°44'3 6.3
2017-Nov-09 12:30N 51°08' E 003°47'3 6.6
2017-Nov-09 12:01N 51°12' E 003°48'3 6.3
2017-Nov-09 11:30N 51°15' E 003°49'3 6.5
2017-Nov-09 11:00N 51°18' E 003°50'2 4.1
2017-Nov-09 10:30N 51°20' E 003°49'0 0.1
2017-Nov-09 10:00N 51°20' E 003°49'1 1.0
2017-Nov-09 09:30N 51°20' E 003°49'2 4.8
2017-Nov-09 09:00N 51°22' E 003°46'4 7.4
2017-Nov-09 08:30N 51°24' E 003°41'4 7.5
2017-Nov-09 08:00N 51°25' E 003°35'4 8.1
2017-Nov-09 07:30N 51°28' E 003°31'5 9.6
2017-Nov-09 07:00N 51°32' E 003°26'5 9.7
2017-Nov-09 06:30N 51°36' E 003°22'4 7.5
2017-Nov-09 06:00N 51°39' E 003°19'6 7.5
2017-Nov-09 05:13N 51°45' E 003°17'3 5.9
2017-Nov-09 04:48N 51°46' E 003°20'0 0.3
2017-Nov-09 03:39N 51°46' E 003°21'0 0.1
2017-Nov-09 03:27N 51°46' E 003°21'0 0.1
2017-Nov-09 02:57N 51°46' E 003°21'0 0.0
2017-Nov-08 22:28N 51°46' E 003°21'0 0.0
2017-Nov-08 21:58N 51°46' E 003°21'0 0.0
2017-Nov-08 21:31N 51°46' E 003°21'0 0.0
2017-Nov-08 20:58N 51°46' E 003°21'0 0.0
2017-Nov-08 20:28N 51°46' E 003°21'0 0.0
2017-Nov-08 20:00N 51°46' E 003°21'0 0.1
2017-Nov-08 19:25N 51°46' E 003°21'0 0.1
2017-Nov-08 18:55N 51°46' E 003°21'0 0.0
2017-Nov-08 18:24N 51°46' E 003°21'0 0.0
2017-Nov-08 15:31N 51°46' E 003°21'0 0.1
2017-Nov-08 15:00N 51°46' E 003°21'1 0.9
2017-Nov-08 13:20N 51°47' E 003°19'  

Dump ship's entire track history